sensor_id;sensor_type;location;lat;lon;timestamp;pressure;altitude;pressure_sealevel;temperature;humidity
49759;BME280;35654;46.080;11.118;2022-12-18T00:01:29;100592.25;;;0.09;100.00
49759;BME280;35654;46.080;11.118;2022-12-18T00:03:57;100597.84;;;0.07;100.00
49759;BME280;35654;46.080;11.118;2022-12-18T00:06:25;100588.94;;;0.07;100.00
49759;BME280;35654;46.080;11.118;2022-12-18T00:08:52;100576.72;;;0.04;100.00
49759;BME280;35654;46.080;11.118;2022-12-18T00:11:21;100579.41;;;0.04;100.00
49759;BME280;35654;46.080;11.118;2022-12-18T00:13:49;100584.78;;;0.04;100.00
49759;BME280;35654;46.080;11.118;2022-12-18T00:16:19;100577.72;;;0.03;100.00
49759;BME280;35654;46.080;11.118;2022-12-18T00:18:52;100584.41;;;0.07;100.00
49759;BME280;35654;46.080;11.118;2022-12-18T00:21:19;100591.06;;;0.11;100.00
49759;BME280;35654;46.080;11.118;2022-12-18T00:23:48;100593.31;;;0.08;100.00
49759;BME280;35654;46.080;11.118;2022-12-18T00:26:21;100594.94;;;0.09;100.00
49759;BME280;35654;46.080;11.118;2022-12-18T00:28:49;100601.56;;;0.06;100.00
49759;BME280;35654;46.080;11.118;2022-12-18T00:31:19;100604.88;;;0.02;100.00
49759;BME280;35654;46.080;11.118;2022-12-18T00:33:46;100607.31;;;-0.04;100.00
49759;BME280;35654;46.080;11.118;2022-12-18T00:36:20;100609.94;;;-0.10;100.00
49759;BME280;35654;46.080;11.118;2022-12-18T00:38:47;100617.56;;;-0.14;100.00
49759;BME280;35654;46.080;11.118;2022-12-18T00:41:15;100619.25;;;-0.13;100.00
49759;BME280;35654;46.080;11.118;2022-12-18T00:44:04;100627.72;;;-0.16;100.00
49759;BME280;35654;46.080;11.118;2022-12-18T00:46:32;100625.03;;;-0.16;100.00
49759;BME280;35654;46.080;11.118;2022-12-18T00:48:59;100633.31;;;-0.17;100.00
49759;BME280;35654;46.080;11.118;2022-12-18T00:51:26;100631.84;;;-0.20;100.00
49759;BME280;35654;46.080;11.118;2022-12-18T00:53:53;100635.16;;;-0.18;100.00
49759;BME280;35654;46.080;11.118;2022-12-18T00:56:21;100636.81;;;-0.17;100.00
49759;BME280;35654;46.080;11.118;2022-12-18T00:58:48;100644.88;;;-0.17;100.00
49759;BME280;35654;46.080;11.118;2022-12-18T01:01:14;100653.41;;;-0.13;100.00
49759;BME280;35654;46.080;11.118;2022-12-18T01:03:41;100650.72;;;-0.13;100.00
49759;BME280;35654;46.080;11.118;2022-12-18T01:06:09;100647.19;;;-0.14;100.00
49759;BME280;35654;46.080;11.118;2022-12-18T01:08:36;100653.63;;;-0.15;100.00
49759;BME280;35654;46.080;11.118;2022-12-18T01:11:14;100649.25;;;-0.16;100.00
49759;BME280;35654;46.080;11.118;2022-12-18T01:13:42;100650.69;;;-0.20;100.00
49759;BME280;35654;46.080;11.118;2022-12-18T01:16:12;100660.78;;;-0.22;100.00
49759;BME280;35654;46.080;11.118;2022-12-18T01:18:38;100663.06;;;-0.25;100.00
49759;BME280;35654;46.080;11.118;2022-12-18T01:21:08;100673.16;;;-0.27;100.00
49759;BME280;35654;46.080;11.118;2022-12-18T01:23:35;100677.28;;;-0.31;100.00
49759;BME280;35654;46.080;11.118;2022-12-18T01:26:12;100685.53;;;-0.33;100.00
49759;BME280;35654;46.080;11.118;2022-12-18T01:28:39;100683.69;;;-0.32;100.00
49759;BME280;35654;46.080;11.118;2022-12-18T01:31:25;100693.59;;;-0.33;100.00
49759;BME280;35654;46.080;11.118;2022-12-18T01:33:52;100691.97;;;-0.34;100.00
49759;BME280;35654;46.080;11.118;2022-12-18T01:36:27;100697.13;;;-0.32;100.00
49759;BME280;35654;46.080;11.118;2022-12-18T01:38:55;100703.16;;;-0.30;100.00
49759;BME280;35654;46.080;11.118;2022-12-18T01:41:24;100702.34;;;-0.31;100.00
49759;BME280;35654;46.080;11.118;2022-12-18T01:43:56;100706.44;;;-0.35;100.00
49759;BME280;35654;46.080;11.118;2022-12-18T01:46:27;100714.88;;;-0.38;100.00
49759;BME280;35654;46.080;11.118;2022-12-18T01:49:01;100715.72;;;-0.37;100.00
49759;BME280;35654;46.080;11.118;2022-12-18T01:51:29;100717.19;;;-0.35;100.00
49759;BME280;35654;46.080;11.118;2022-12-18T01:53:59;100732.97;;;-0.32;100.00
49759;BME280;35654;46.080;11.118;2022-12-18T01:56:26;100728.97;;;-0.36;100.00
49759;BME280;35654;46.080;11.118;2022-12-18T01:59:10;100734.94;;;-0.40;100.00
49759;BME280;35654;46.080;11.118;2022-12-18T02:01:37;100744.97;;;-0.49;100.00
49759;BME280;35654;46.080;11.118;2022-12-18T02:04:22;100749.34;;;-0.48;100.00
49759;BME280;35654;46.080;11.118;2022-12-18T02:06:54;100756.22;;;-0.45;100.00
49759;BME280;35654;46.080;11.118;2022-12-18T02:12:23;100749.78;;;-0.44;100.00
49759;BME280;35654;46.080;11.118;2022-12-18T02:15:12;100754.41;;;-0.38;100.00
49759;BME280;35654;46.080;11.118;2022-12-18T02:18:07;100743.09;;;-0.34;100.00
49759;BME280;35654;46.080;11.118;2022-12-18T02:29:34;100756.63;;;-0.42;100.00
49759;BME280;35654;46.080;11.118;2022-12-18T02:32:03;100768.63;;;-0.44;100.00
49759;BME280;35654;46.080;11.118;2022-12-18T02:34:32;100764.91;;;-0.43;100.00
49759;BME280;35654;46.080;11.118;2022-12-18T02:37:04;100768.81;;;-0.46;100.00
49759;BME280;35654;46.080;11.118;2022-12-18T02:39:34;100773.75;;;-0.49;100.00
49759;BME280;35654;46.080;11.118;2022-12-18T02:42:02;100780.44;;;-0.45;100.00
49759;BME280;35654;46.080;11.118;2022-12-18T02:44:44;100782.66;;;-0.49;100.00
49759;BME280;35654;46.080;11.118;2022-12-18T02:47:12;100781.09;;;-0.58;100.00
49759;BME280;35654;46.080;11.118;2022-12-18T02:52:42;100788.59;;;-0.53;100.00
49759;BME280;35654;46.080;11.118;2022-12-18T03:04:02;100800.19;;;-0.53;100.00
49759;BME280;35654;46.080;11.118;2022-12-18T03:06:39;100798.31;;;-0.52;100.00
49759;BME280;35654;46.080;11.118;2022-12-18T03:09:11;100804.56;;;-0.52;100.00
49759;BME280;35654;46.080;11.118;2022-12-18T03:11:42;100803.53;;;-0.51;100.00
49759;BME280;35654;46.080;11.118;2022-12-18T03:14:31;100800.84;;;-0.51;100.00
49759;BME280;35654;46.080;11.118;2022-12-18T03:17:02;100803.34;;;-0.49;100.00
49759;BME280;35654;46.080;11.118;2022-12-18T03:19:32;100800.47;;;-0.48;100.00
49759;BME280;35654;46.080;11.118;2022-12-18T03:22:02;100801.84;;;-0.52;100.00
49759;BME280;35654;46.080;11.118;2022-12-18T03:24:31;100799.06;;;-0.59;100.00
49759;BME280;35654;46.080;11.118;2022-12-18T03:27:00;100807.94;;;-0.65;100.00
49759;BME280;35654;46.080;11.118;2022-12-18T03:29:35;100806.63;;;-0.69;100.00
49759;BME280;35654;46.080;11.118;2022-12-18T03:32:09;100817.75;;;-0.72;100.00
49759;BME280;35654;46.080;11.118;2022-12-18T03:34:39;100826.19;;;-0.75;100.00
49759;BME280;35654;46.080;11.118;2022-12-18T03:37:07;100825.53;;;-0.77;100.00
49759;BME280;35654;46.080;11.118;2022-12-18T03:39:34;100821.00;;;-0.76;100.00
49759;BME280;35654;46.080;11.118;2022-12-18T03:50:37;100832.22;;;-0.73;100.00
49759;BME280;35654;46.080;11.118;2022-12-18T03:53:22;100835.47;;;-0.77;100.00
49759;BME280;35654;46.080;11.118;2022-12-18T03:55:52;100834.19;;;-0.81;100.00
49759;BME280;35654;46.080;11.118;2022-12-18T03:58:24;100836.88;;;-0.81;100.00
49759;BME280;35654;46.080;11.118;2022-12-18T04:00:54;100845.31;;;-0.84;100.00
49759;BME280;35654;46.080;11.118;2022-12-18T04:03:23;100845.47;;;-0.86;100.00
49759;BME280;35654;46.080;11.118;2022-12-18T04:05:52;100846.97;;;-0.83;100.00
49759;BME280;35654;46.080;11.118;2022-12-18T04:08:21;100848.44;;;-0.81;100.00
49759;BME280;35654;46.080;11.118;2022-12-18T04:10:48;100852.44;;;-0.77;100.00
49759;BME280;35654;46.080;11.118;2022-12-18T04:13:22;100854.19;;;-0.69;100.00
49759;BME280;35654;46.080;11.118;2022-12-18T04:15:49;100857.72;;;-0.69;99.98
49759;BME280;35654;46.080;11.118;2022-12-18T04:18:16;100863.19;;;-0.77;99.26
49759;BME280;35654;46.080;11.118;2022-12-18T04:20:42;100868.94;;;-0.80;99.24
49759;BME280;35654;46.080;11.118;2022-12-18T04:23:09;100871.47;;;-0.78;99.53
49759;BME280;35654;46.080;11.118;2022-12-18T04:25:35;100875.16;;;-0.79;99.88
49759;BME280;35654;46.080;11.118;2022-12-18T04:28:02;100876.00;;;-0.79;100.00
49759;BME280;35654;46.080;11.118;2022-12-18T04:30:29;100878.69;;;-0.79;100.00
49759;BME280;35654;46.080;11.118;2022-12-18T04:32:56;100886.28;;;-0.82;100.00
49759;BME280;35654;46.080;11.118;2022-12-18T04:35:22;100892.88;;;-0.85;100.00
49759;BME280;35654;46.080;11.118;2022-12-18T04:37:49;100897.41;;;-0.85;100.00
49759;BME280;35654;46.080;11.118;2022-12-18T04:40:15;100897.41;;;-0.85;100.00
49759;BME280;35654;46.080;11.118;2022-12-18T04:42:42;100900.75;;;-0.83;100.00
49759;BME280;35654;46.080;11.118;2022-12-18T04:45:09;100909.84;;;-0.84;100.00
49759;BME280;35654;46.080;11.118;2022-12-18T04:47:36;100908.16;;;-0.85;100.00
49759;BME280;35654;46.080;11.118;2022-12-18T04:50:03;100906.84;;;-0.89;100.00
49759;BME280;35654;46.080;11.118;2022-12-18T04:52:30;100916.31;;;-0.93;100.00
49759;BME280;35654;46.080;11.118;2022-12-18T04:54:56;100917.31;;;-0.94;100.00
49759;BME280;35654;46.080;11.118;2022-12-18T04:57:23;100915.47;;;-0.94;100.00
49759;BME280;35654;46.080;11.118;2022-12-18T04:59:48;100923.72;;;-0.95;100.00
49759;BME280;35654;46.080;11.118;2022-12-18T05:02:15;100922.25;;;-0.98;100.00
49759;BME280;35654;46.080;11.118;2022-12-18T05:04:42;100925.59;;;-0.96;100.00
49759;BME280;35654;46.080;11.118;2022-12-18T05:07:08;100929.28;;;-0.97;100.00
49759;BME280;35654;46.080;11.118;2022-12-18T05:09:34;100930.97;;;-0.96;100.00
49759;BME280;35654;46.080;11.118;2022-12-18T05:12:01;100938.81;;;-0.94;100.00
49759;BME280;35654;46.080;11.118;2022-12-18T05:14:27;100934.94;;;-0.92;100.00
49759;BME280;35654;46.080;11.118;2022-12-18T05:16:54;100938.53;;;-0.99;100.00
49759;BME280;35654;46.080;11.118;2022-12-18T05:19:19;100945.59;;;-0.98;100.00
49759;BME280;35654;46.080;11.118;2022-12-18T05:21:45;100939.56;;;-1.00;100.00
49759;BME280;35654;46.080;11.118;2022-12-18T05:24:10;100941.78;;;-1.04;100.00
49759;BME280;35654;46.080;11.118;2022-12-18T05:26:35;100941.59;;;-1.02;99.59
49759;BME280;35654;46.080;11.118;2022-12-18T05:29:01;100950.88;;;-1.05;99.09
49759;BME280;35654;46.080;11.118;2022-12-18T05:31:26;100954.56;;;-1.06;98.92
49759;BME280;35654;46.080;11.118;2022-12-18T05:33:53;100950.38;;;-1.08;99.47
49759;BME280;35654;46.080;11.118;2022-12-18T05:36:19;100943.34;;;-1.09;99.77
49759;BME280;35654;46.080;11.118;2022-12-18T05:38:45;100956.13;;;-1.11;99.56
49759;BME280;35654;46.080;11.118;2022-12-18T05:41:12;100954.47;;;-1.12;99.92
49759;BME280;35654;46.080;11.118;2022-12-18T05:43:38;100956.31;;;-1.13;100.00
49759;BME280;35654;46.080;11.118;2022-12-18T05:46:10;100958.81;;;-1.11;100.00
49759;BME280;35654;46.080;11.118;2022-12-18T05:48:36;100971.59;;;-1.13;99.15
49759;BME280;35654;46.080;11.118;2022-12-18T05:51:07;100972.78;;;-1.16;99.03
49759;BME280;35654;46.080;11.118;2022-12-18T05:53:35;100981.56;;;-1.22;99.50
49759;BME280;35654;46.080;11.118;2022-12-18T05:56:05;100974.91;;;-1.26;100.00
49759;BME280;35654;46.080;11.118;2022-12-18T05:58:33;100989.34;;;-1.27;99.98
49759;BME280;35654;46.080;11.118;2022-12-18T06:01:05;100996.22;;;-1.25;100.00
49759;BME280;35654;46.080;11.118;2022-12-18T06:03:32;100989.00;;;-1.24;100.00
49759;BME280;35654;46.080;11.118;2022-12-18T06:05:59;100993.53;;;-1.25;100.00
49759;BME280;35654;46.080;11.118;2022-12-18T06:08:26;100999.91;;;-1.26;100.00
49759;BME280;35654;46.080;11.118;2022-12-18T06:10:53;100994.72;;;-1.27;100.00
49759;BME280;35654;46.080;11.118;2022-12-18T06:13:19;101003.97;;;-1.30;100.00
49759;BME280;35654;46.080;11.118;2022-12-18T06:15:46;101008.00;;;-1.34;100.00
49759;BME280;35654;46.080;11.118;2022-12-18T06:18:13;101014.22;;;-1.33;100.00
49759;BME280;35654;46.080;11.118;2022-12-18T06:20:39;101020.09;;;-1.30;100.00
49759;BME280;35654;46.080;11.118;2022-12-18T06:23:07;101021.59;;;-1.27;100.00
49759;BME280;35654;46.080;11.118;2022-12-18T06:25:38;101023.06;;;-1.25;100.00
49759;BME280;35654;46.080;11.118;2022-12-18T06:28:05;101031.13;;;-1.25;100.00
49759;BME280;35654;46.080;11.118;2022-12-18T06:30:31;101033.84;;;-1.25;100.00
49759;BME280;35654;46.080;11.118;2022-12-18T06:32:58;101030.13;;;-1.24;100.00
49759;BME280;35654;46.080;11.118;2022-12-18T06:35:24;101036.50;;;-1.25;100.00
49759;BME280;35654;46.080;11.118;2022-12-18T06:37:51;101039.03;;;-1.23;100.00
49759;BME280;35654;46.080;11.118;2022-12-18T06:40:18;101042.38;;;-1.21;100.00
49759;BME280;35654;46.080;11.118;2022-12-18T06:42:44;101040.34;;;-1.19;100.00
49759;BME280;35654;46.080;11.118;2022-12-18T06:45:11;101050.44;;;-1.21;99.80
49759;BME280;35654;46.080;11.118;2022-12-18T06:47:38;101055.81;;;-1.21;99.39
49759;BME280;35654;46.080;11.118;2022-12-18T06:50:05;101052.34;;;-1.30;99.15
49759;BME280;35654;46.080;11.118;2022-12-18T06:52:32;101057.56;;;-1.36;99.22
49759;BME280;35654;46.080;11.118;2022-12-18T06:54:59;101050.72;;;-1.39;99.12
49759;BME280;35654;46.080;11.118;2022-12-18T06:57:26;101054.25;;;-1.38;98.92
49759;BME280;35654;46.080;11.118;2022-12-18T06:59:52;101047.88;;;-1.37;98.97
49759;BME280;35654;46.080;11.118;2022-12-18T07:02:18;101057.41;;;-1.35;99.01
49759;BME280;35654;46.080;11.118;2022-12-18T07:04:43;101060.94;;;-1.34;98.76
49759;BME280;35654;46.080;11.118;2022-12-18T07:07:09;101063.25;;;-1.31;98.50
49759;BME280;35654;46.080;11.118;2022-12-18T07:09:34;101063.09;;;-1.30;98.17
49759;BME280;35654;46.080;11.118;2022-12-18T07:12:01;101064.41;;;-1.26;98.77
49759;BME280;35654;46.080;11.118;2022-12-18T07:14:29;101066.72;;;-1.23;98.78
49759;BME280;35654;46.080;11.118;2022-12-18T07:16:55;101074.94;;;-1.16;99.07
49759;BME280;35654;46.080;11.118;2022-12-18T07:19:22;101075.59;;;-1.14;98.18
49759;BME280;35654;46.080;11.118;2022-12-18T07:21:49;101085.97;;;-1.11;98.18
49759;BME280;35654;46.080;11.118;2022-12-18T07:24:16;101088.03;;;-1.13;97.98
49759;BME280;35654;46.080;11.118;2022-12-18T07:26:45;101090.06;;;-1.15;97.38
49759;BME280;35654;46.080;11.118;2022-12-18T07:29:12;101092.38;;;-1.12;98.09
49759;BME280;35654;46.080;11.118;2022-12-18T07:31:39;101096.56;;;-1.09;97.91
49759;BME280;35654;46.080;11.118;2022-12-18T07:34:10;101097.22;;;-1.07;97.51
49759;BME280;35654;46.080;11.118;2022-12-18T07:36:37;101106.78;;;-1.05;97.29
49759;BME280;35654;46.080;11.118;2022-12-18T07:39:03;101116.34;;;-1.02;96.73
49759;BME280;35654;46.080;11.118;2022-12-18T07:41:30;101119.22;;;-1.04;96.24
49759;BME280;35654;46.080;11.118;2022-12-18T07:43:56;101124.41;;;-1.02;96.27
49759;BME280;35654;46.080;11.118;2022-12-18T07:46:23;101123.56;;;-1.03;96.39
49759;BME280;35654;46.080;11.118;2022-12-18T07:48:50;101127.09;;;-1.02;96.51
49759;BME280;35654;46.080;11.118;2022-12-18T07:51:17;101135.66;;;-0.99;96.48
49759;BME280;35654;46.080;11.118;2022-12-18T07:53:45;101130.75;;;-0.95;96.51
49759;BME280;35654;46.080;11.118;2022-12-18T07:56:12;101141.16;;;-0.92;95.95
49759;BME280;35654;46.080;11.118;2022-12-18T07:58:39;101149.03;;;-0.91;95.40
49759;BME280;35654;46.080;11.118;2022-12-18T08:01:11;101151.72;;;-0.91;95.02
49759;BME280;35654;46.080;11.118;2022-12-18T08:03:40;101146.84;;;-0.87;96.01
49759;BME280;35654;46.080;11.118;2022-12-18T08:06:08;101150.53;;;-0.88;95.48
49759;BME280;35654;46.080;11.118;2022-12-18T08:08:35;101149.53;;;-0.87;95.84
49759;BME280;35654;46.080;11.118;2022-12-18T08:11:02;101160.94;;;-0.85;95.90
49759;BME280;35654;46.080;11.118;2022-12-18T08:13:28;101158.25;;;-0.85;95.65
49759;BME280;35654;46.080;11.118;2022-12-18T08:16:04;101158.78;;;-0.90;95.93
49759;BME280;35654;46.080;11.118;2022-12-18T08:18:32;101164.81;;;-0.88;96.15
49759;BME280;35654;46.080;11.118;2022-12-18T08:21:21;101177.06;;;-0.85;96.00
49759;BME280;35654;46.080;11.118;2022-12-18T08:23:50;101176.19;;;-0.78;95.77
49759;BME280;35654;46.080;11.118;2022-12-18T08:26:19;101182.28;;;-0.61;95.22
49759;BME280;35654;46.080;11.118;2022-12-18T08:28:46;101183.19;;;-0.46;93.59
49759;BME280;35654;46.080;11.118;2022-12-18T08:31:13;101186.81;;;-0.31;93.18
49759;BME280;35654;46.080;11.118;2022-12-18T08:33:39;101191.84;;;-0.13;92.85
49759;BME280;35654;46.080;11.118;2022-12-18T08:36:06;101193.09;;;-0.01;92.79
49759;BME280;35654;46.080;11.118;2022-12-18T08:38:32;101190.81;;;0.11;91.98
49759;BME280;35654;46.080;11.118;2022-12-18T08:41:03;101179.75;;;0.20;91.41
49759;BME280;35654;46.080;11.118;2022-12-18T08:43:29;101178.94;;;0.34;90.56
49759;BME280;35654;46.080;11.118;2022-12-18T08:46:13;101199.50;;;0.50;89.81
49759;BME280;35654;46.080;11.118;2022-12-18T08:48:38;101196.13;;;0.63;88.36
49759;BME280;35654;46.080;11.118;2022-12-18T08:51:04;101196.16;;;0.77;87.02
49759;BME280;35654;46.080;11.118;2022-12-18T08:53:29;101205.25;;;0.91;86.70
49759;BME280;35654;46.080;11.118;2022-12-18T08:55:56;101194.81;;;1.02;84.96
49759;BME280;35654;46.080;11.118;2022-12-18T08:58:23;101202.97;;;1.09;83.06
49759;BME280;35654;46.080;11.118;2022-12-18T09:00:50;101193.69;;;1.11;81.38
49759;BME280;35654;46.080;11.118;2022-12-18T09:03:18;101193.28;;;1.14;79.73
49759;BME280;35654;46.080;11.118;2022-12-18T09:05:45;101197.75;;;1.22;78.27
49759;BME280;35654;46.080;11.118;2022-12-18T09:08:12;101205.81;;;1.37;78.69
49759;BME280;35654;46.080;11.118;2022-12-18T09:10:46;101205.09;;;1.49;78.12
49759;BME280;35654;46.080;11.118;2022-12-18T09:13:14;101209.91;;;1.54;76.22
49759;BME280;35654;46.080;11.118;2022-12-18T09:15:47;101205.31;;;1.69;76.39
49759;BME280;35654;46.080;11.118;2022-12-18T09:18:16;101207.72;;;1.79;75.72
49759;BME280;35654;46.080;11.118;2022-12-18T09:20:43;101202.09;;;1.80;73.97
49759;BME280;35654;46.080;11.118;2022-12-18T09:23:08;101214.63;;;1.88;73.24
49759;BME280;35654;46.080;11.118;2022-12-18T09:25:35;101211.22;;;2.00;74.03
49759;BME280;35654;46.080;11.118;2022-12-18T09:28:02;101201.97;;;2.09;73.39
49759;BME280;35654;46.080;11.118;2022-12-18T09:30:29;101213.88;;;2.21;71.88
49759;BME280;35654;46.080;11.118;2022-12-18T09:32:56;101200.66;;;2.33;71.64
49759;BME280;35654;46.080;11.118;2022-12-18T09:35:21;101209.09;;;2.45;72.42
49759;BME280;35654;46.080;11.118;2022-12-18T09:37:48;101201.19;;;2.50;70.62
49759;BME280;35654;46.080;11.118;2022-12-18T09:40:16;101196.03;;;2.55;68.93
49759;BME280;35654;46.080;11.118;2022-12-18T09:42:45;101202.75;;;2.65;67.99
49759;BME280;35654;46.080;11.118;2022-12-18T09:45:14;101196.53;;;2.71;68.21
49759;BME280;35654;46.080;11.118;2022-12-18T09:47:41;101186.22;;;2.81;69.09
49759;BME280;35654;46.080;11.118;2022-12-18T09:50:28;101186.88;;;2.90;67.36
49759;BME280;35654;46.080;11.118;2022-12-18T09:52:57;101195.69;;;3.05;66.26
49759;BME280;35654;46.080;11.118;2022-12-18T09:55:34;101187.88;;;3.36;65.95
49759;BME280;35654;46.080;11.118;2022-12-18T10:00:42;101158.66;;;10.73;44.31
49759;BME280;35654;46.080;11.118;2022-12-18T10:03:17;101155.16;;;14.19;35.88
49759;BME280;35654;46.080;11.118;2022-12-18T10:11:43;101158.94;;;14.89;31.11
49759;BME280;35654;46.080;11.118;2022-12-18T10:20:00;101160.34;;;16.67;28.45
49759;BME280;35654;46.080;11.118;2022-12-18T10:25:21;101153.28;;;16.51;28.42
49759;BME280;35654;46.080;11.118;2022-12-18T10:27:48;101154.66;;;17.06;26.96
49759;BME280;35654;46.080;11.118;2022-12-18T10:30:20;101149.09;;;17.53;26.59
49759;BME280;35654;46.080;11.118;2022-12-18T10:32:46;101141.41;;;17.87;26.21
49759;BME280;35654;46.080;11.118;2022-12-18T10:35:19;101137.00;;;17.68;26.80
49759;BME280;35654;46.080;11.118;2022-12-18T10:40:30;101135.41;;;17.99;25.41
49759;BME280;35654;46.080;11.118;2022-12-18T10:43:15;101123.84;;;15.68;28.03
49759;BME280;35654;46.080;11.118;2022-12-18T10:45:41;101124.91;;;16.11;28.41
49759;BME280;35654;46.080;11.118;2022-12-18T10:48:21;101130.88;;;17.89;25.99
49759;BME280;35654;46.080;11.118;2022-12-18T10:50:51;101122.78;;;18.25;25.53
49759;BME280;35654;46.080;11.118;2022-12-18T10:53:25;101122.03;;;15.39;28.96
49759;BME280;35654;46.080;11.118;2022-12-18T10:55:53;101111.41;;;16.67;26.68
49759;BME280;35654;46.080;11.118;2022-12-18T10:58:26;101118.81;;;17.80;25.45
49759;BME280;35654;46.080;11.118;2022-12-18T11:01:15;101110.56;;;18.58;24.05
49759;BME280;35654;46.080;11.118;2022-12-18T11:04:01;101111.59;;;19.17;23.70
49759;BME280;35654;46.080;11.118;2022-12-18T11:06:27;101103.06;;;19.13;24.10
49759;BME280;35654;46.080;11.118;2022-12-18T11:09:22;101106.72;;;16.92;26.26
49759;BME280;35654;46.080;11.118;2022-12-18T11:11:52;101100.97;;;17.86;25.20
49759;BME280;35654;46.080;11.118;2022-12-18T11:14:23;101095.66;;;18.68;24.44
49759;BME280;35654;46.080;11.118;2022-12-18T11:16:50;101100.47;;;20.02;23.04
49759;BME280;35654;46.080;11.118;2022-12-18T11:19:34;101095.69;;;20.16;22.29
49759;BME280;35654;46.080;11.118;2022-12-18T11:22:02;101091.66;;;18.74;23.19
49759;BME280;35654;46.080;11.118;2022-12-18T11:24:32;101096.88;;;19.30;23.18
49759;BME280;35654;46.080;11.118;2022-12-18T11:27:01;101092.94;;;19.58;22.65
49759;BME280;35654;46.080;11.118;2022-12-18T11:29:32;101098.03;;;20.01;22.17
49759;BME280;35654;46.080;11.118;2022-12-18T11:35:22;101082.81;;;18.86;23.17
49759;BME280;35654;46.080;11.118;2022-12-18T11:37:55;101089.41;;;19.17;23.45
49759;BME280;35654;46.080;11.118;2022-12-18T11:40:44;101083.78;;;18.35;23.10
49759;BME280;35654;46.080;11.118;2022-12-18T11:43:13;101075.63;;;19.12;23.16
49759;BME280;35654;46.080;11.118;2022-12-18T11:45:54;101075.75;;;19.56;23.12
49759;BME280;35654;46.080;11.118;2022-12-18T11:48:54;101063.91;;;20.09;21.79
49759;BME280;35654;46.080;11.118;2022-12-18T11:51:40;101065.50;;;20.01;21.32
49759;BME280;35654;46.080;11.118;2022-12-18T11:54:12;101068.75;;;20.87;21.25
49759;BME280;35654;46.080;11.118;2022-12-18T11:56:55;101070.09;;;20.28;21.98
49759;BME280;35654;46.080;11.118;2022-12-18T12:00:04;101065.75;;;20.44;21.29
49759;BME280;35654;46.080;11.118;2022-12-18T12:05:36;101059.31;;;19.46;22.81
49759;BME280;35654;46.080;11.118;2022-12-18T12:11:17;101060.78;;;19.66;23.18
49759;BME280;35654;46.080;11.118;2022-12-18T12:17:11;101049.22;;;20.78;20.76
49759;BME280;35654;46.080;11.118;2022-12-18T12:20:02;101056.56;;;20.66;21.16
49759;BME280;35654;46.080;11.118;2022-12-18T12:22:45;101048.34;;;19.28;22.42
49759;BME280;35654;46.080;11.118;2022-12-18T12:25:28;101041.47;;;19.11;22.88
49759;BME280;35654;46.080;11.118;2022-12-18T12:33:46;101033.59;;;18.64;22.89
49759;BME280;35654;46.080;11.118;2022-12-18T12:36:31;101036.41;;;19.63;22.06
49759;BME280;35654;46.080;11.118;2022-12-18T12:39:06;101038.25;;;20.73;20.48
49759;BME280;35654;46.080;11.118;2022-12-18T12:41:35;101038.19;;;19.09;21.67
49759;BME280;35654;46.080;11.118;2022-12-18T12:44:29;101038.00;;;18.65;23.06
49759;BME280;35654;46.080;11.118;2022-12-18T12:47:00;101041.38;;;19.03;22.28
49759;BME280;35654;46.080;11.118;2022-12-18T12:49:31;101037.38;;;19.09;22.69
49759;BME280;35654;46.080;11.118;2022-12-18T12:52:07;101040.75;;;18.38;24.07
49759;BME280;35654;46.080;11.118;2022-12-18T12:54:37;101036.34;;;19.76;22.20
49759;BME280;35654;46.080;11.118;2022-12-18T12:57:22;101035.63;;;18.31;22.76
49759;BME280;35654;46.080;11.118;2022-12-18T13:00:09;101047.94;;;15.95;25.52
49759;BME280;35654;46.080;11.118;2022-12-18T13:08:10;101030.78;;;19.05;22.65
49759;BME280;35654;46.080;11.118;2022-12-18T13:10:41;101033.94;;;18.17;22.86
49759;BME280;35654;46.080;11.118;2022-12-18T13:13:12;101032.22;;;17.88;23.83
49759;BME280;35654;46.080;11.118;2022-12-18T13:16:06;101027.28;;;17.85;24.12
49759;BME280;35654;46.080;11.118;2022-12-18T13:18:33;101027.34;;;18.58;23.17
49759;BME280;35654;46.080;11.118;2022-12-18T13:21:12;101015.75;;;19.19;22.63
49759;BME280;35654;46.080;11.118;2022-12-18T13:23:45;101013.63;;;17.38;25.16
49759;BME280;35654;46.080;11.118;2022-12-18T13:36:45;101032.50;;;8.40;39.40
49759;BME280;35654;46.080;11.118;2022-12-18T13:39:22;101029.31;;;7.21;42.44
49759;BME280;35654;46.080;11.118;2022-12-18T13:44:55;101023.88;;;5.89;46.04
49759;BME280;35654;46.080;11.118;2022-12-18T13:47:34;101033.72;;;5.58;48.85
49759;BME280;35654;46.080;11.118;2022-12-18T13:50:25;101025.09;;;5.61;48.66
49759;BME280;35654;46.080;11.118;2022-12-18T13:52:52;101029.47;;;5.69;49.61
49759;BME280;35654;46.080;11.118;2022-12-18T13:55:20;101028.09;;;5.53;49.34
49759;BME280;35654;46.080;11.118;2022-12-18T13:57:47;101023.06;;;5.57;48.68
49759;BME280;35654;46.080;11.118;2022-12-18T14:02:49;101016.59;;;5.33;49.23
49759;BME280;35654;46.080;11.118;2022-12-18T14:07:50;101020.16;;;5.58;50.63
49759;BME280;35654;46.080;11.118;2022-12-18T14:10:18;101017.63;;;5.81;50.38
49759;BME280;35654;46.080;11.118;2022-12-18T14:12:49;101022.28;;;5.99;48.37
49759;BME280;35654;46.080;11.118;2022-12-18T14:15:40;101015.81;;;6.00;48.43
49759;BME280;35654;46.080;11.118;2022-12-18T14:18:54;101024.34;;;5.79;51.35
49759;BME280;35654;46.080;11.118;2022-12-18T14:21:40;101018.81;;;6.10;47.78
49759;BME280;35654;46.080;11.118;2022-12-18T14:26:43;101032.81;;;6.14;48.22
49759;BME280;35654;46.080;11.118;2022-12-18T14:29:30;101028.63;;;5.93;49.93
49759;BME280;35654;46.080;11.118;2022-12-18T14:32:14;101028.94;;;6.03;48.31
49759;BME280;35654;46.080;11.118;2022-12-18T14:34:45;101024.03;;;6.12;47.88